Weather at Washington Dulles International Airport

Public forecast

Using degrees Fahrenheit for public forecast. Weather courtesy of forecast.io.

Current aviation weather report (METAR) for Washington Dulles International Airport

Retrieved 2022/05/23 07:52 UTC (35 minutes ago):

KIAD 230752Z 32010KT 10SM SCT240 17/12 A3015 RMK AO2 SLP206 T01720122

Aviation forecast (TAF) for Washington Dulles International Airport

Retrieved 2022/05/23 06:45 UTC (2 hours ago):

TAF KIAD 230542Z 2306/2412 32009KT P6SM SCT130 BKN200 FM231200 36009KT P6SM SCT090 BKN200 FM232200 35005KT P6SM OVC060 FM240100 36004KT P6SM -SHRA OVC035 FM240600 01003KT 6SM -SHRA BR OVC015 FM241000 04003KT P6SM OVC010